SLRY  Reyes  Airport

Reyes, Bolivia

Add Bookmark
ICAO SLRY
IATA REY
Type Airport
Status Operational
Latitude
14° 18' 15" S
-14.304400
Longitude
67° 21' 12" W
-67.353401
Local (GMT -4 ) UTC
Oct 1, 2016 08:03 am Oct 1, 2016 12:03
Sunrise-Sunset Local UTC
Begin Civil Twilight 05:48 am 09:48
Sunrise 06:10 am 10:10
Sunset 06:27 pm 22:27
End Civil Twilight 06:48 pm 22:48
VFR
VFR
MVFR
MVFR
IFR
IFR
LIFR
LIFR
Unknown
Unavailable

Current Weather

METAR Observed MVFR
SLRY 011100Z 00000KT 7000 FEW017 SCT200 23/22 Q1011 Sat, Oct 1, 2016 @ 11:00 UTC
(1 Hour, 3 Minutes ago)
Marginal Visual Flight Rules
Wind Visibility Clouds Conditions
Calm 7,001 m
  • Few at 1,700 ft AGL
  • Scattered at 20,000 ft AGL
  • No significant weather
Temperatures Readings Precipitation
Current Temp
23°C
73°F
Dewpoint
22°C
72°F
Humidity 94%
Altimeter 29.85" Hg
Sea Level Pressure 1,011 mb
Field Elevation
280 m
919 ft
None Recorded

Additional weather within a 92.6km radius of SLRY

Map ICAO Location
SLRQ 20.7km SW (229°)
VFR
VFR
MVFR
MVFR
IFR
IFR
LIFR
LIFR
Unknown
Unavailable
-
-

CheckWX.com is intended as a tool to help pilots better visualize weather data. It is not intended as a substitute for an official weather briefing obtained from a Flight Service Station. CheckWX.com does not meet the FAA requirements for an official pre-flight weather briefing. Therefore, it's important that pilots still call and obtain an official FSS pre-flight weather briefing.

© 2007-2016 CheckWX.com
12:03:38 UTC